Terminal Aerodrome Forecast
Issued by NWS

Home | Current Version | Previous Version | Graphics & Text | Print | Product List | Glossary On
Versions: 1 2 3 4 5 6 7 8 9 10 11 12 13 14
000
FTUS45 KGGW 152114 AAA
TAFOLF
TAF AMD
KOLF 152114Z 1521/1618 31009KT P6SM VCTS SCT040CB BKN110
      TEMPO 1521/1523 3SM RA BKN040
     FM160000 34008KT P6SM SCT100
     FM160500 03006KT P6SM FEW140=

USA.gov is the U.S. government's official web portal to all federal, state and local government web resources and services.